createdAt,value
2022-12-01T00:10:08.669Z,19.73
2022-12-01T00:20:14.017Z,21.67
2022-12-01T00:30:17.509Z,22.35
2022-12-01T00:40:21.650Z,22.02
2022-12-01T00:50:24.256Z,23.85
2022-12-01T01:00:28.431Z,22.27
2022-12-01T01:10:31.060Z,22.60
2022-12-01T01:20:35.286Z,21.92
2022-12-01T01:30:40.494Z,22.83
2022-12-01T01:40:48.353Z,23.10
2022-12-01T01:50:51.067Z,22.80
2022-12-01T02:00:55.583Z,20.17
2022-12-01T02:11:15.150Z,20.50
2022-12-01T02:21:37.092Z,21.13
2022-12-01T02:31:48.498Z,18.30
2022-12-01T02:41:55.862Z,22.35
2022-12-01T02:52:00.690Z,20.42
2022-12-01T03:02:13.050Z,23.23
2022-12-01T03:12:24.810Z,24.05
2022-12-01T03:22:34.419Z,21.65
2022-12-01T03:32:42.967Z,20.67
2022-12-01T03:42:49.774Z,22.83
2022-12-01T03:53:03.429Z,22.25
2022-12-01T04:03:07.043Z,23.52
2022-12-01T04:13:16.622Z,23.88
2022-12-01T04:23:33.190Z,22.58
2022-12-01T04:33:37.195Z,23.05
2022-12-01T04:43:40.209Z,23.45
2022-12-01T04:53:44.244Z,22.08
2022-12-01T05:03:50.095Z,23.63
2022-12-01T05:13:54.150Z,21.77
2022-12-01T05:23:56.787Z,23.85
2022-12-01T05:34:00.858Z,23.63
2022-12-01T05:44:03.498Z,21.65
2022-12-01T05:54:07.581Z,24.20
2022-12-01T06:04:10.308Z,21.63
2022-12-01T06:14:14.326Z,21.55
2022-12-01T06:24:16.958Z,21.67
2022-12-01T06:34:21.165Z,19.88
2022-12-01T06:44:24.245Z,19.42
2022-12-01T06:54:28.234Z,20.38
2022-12-01T07:04:31.505Z,19.08
2022-12-01T07:14:35.822Z,19.63
2022-12-01T07:24:38.424Z,20.88
2022-12-01T07:34:42.859Z,21.13
2022-12-01T07:44:45.559Z,17.38
2022-12-01T07:54:49.582Z,18.33
2022-12-01T08:04:52.351Z,19.10
2022-12-01T08:14:56.312Z,16.95
2022-12-01T08:24:58.952Z,16.23
2022-12-01T08:35:03.230Z,16.98
2022-12-01T08:45:06.519Z,24.08
2022-12-01T08:55:11.963Z,21.30
2022-12-01T09:05:14.871Z,17.88
2022-12-01T09:15:18.844Z,17.90
2022-12-01T09:25:21.735Z,17.73
2022-12-01T09:35:25.731Z,16.88
2022-12-01T09:45:31.352Z,16.27
2022-12-01T09:55:36.692Z,16.23
2022-12-01T10:06:10.244Z,16.35
2022-12-01T10:16:12.100Z,15.45
2022-12-01T10:26:19.414Z,19.75
2022-12-01T10:36:24.504Z,21.40
2022-12-01T10:46:33.289Z,22.38
2022-12-01T10:56:41.416Z,23.17
2022-12-01T11:06:50.849Z,24.77
2022-12-01T11:16:55.959Z,22.67
2022-12-01T11:27:00.033Z,22.20
2022-12-01T11:37:08.608Z,22.10
2022-12-01T11:47:23.080Z,24.08
2022-12-01T11:57:34.819Z,24.05
2022-12-01T12:07:50.758Z,24.25
2022-12-01T12:18:25.435Z,22.48
2022-12-01T12:28:41.386Z,22.85
2022-12-01T12:39:03.061Z,22.95
2022-12-01T12:49:22.896Z,19.58
2022-12-01T12:59:31.168Z,20.60
2022-12-01T13:09:37.162Z,19.65
2022-12-01T13:19:43.851Z,18.55
2022-12-01T13:29:48.735Z,19.73
2022-12-01T13:39:55.566Z,19.65
2022-12-01T13:49:59.962Z,21.33
2022-12-01T14:00:23.548Z,20.75
2022-12-01T14:10:29.971Z,21.08
2022-12-01T14:20:38.332Z,18.92
2022-12-01T14:31:05.622Z,20.20
2022-12-01T14:41:19.636Z,20.50
2022-12-01T14:51:28.672Z,22.10
2022-12-01T15:01:35.970Z,21.40
2022-12-01T15:11:49.397Z,20.88
2022-12-01T15:21:53.382Z,21.13
2022-12-01T15:31:57.995Z,21.27
2022-12-01T15:42:03.034Z,20.35
2022-12-01T15:52:08.676Z,19.30
2022-12-01T16:02:27.061Z,19.98
2022-12-01T16:12:32.846Z,20.13
2022-12-01T16:22:36.921Z,20.00
2022-12-01T16:32:41.342Z,24.73
2022-12-01T16:42:46.102Z,19.00
2022-12-01T16:52:48.855Z,19.95
2022-12-01T17:02:53.579Z,21.00
2022-12-01T17:12:56.269Z,19.65
2022-12-01T17:23:00.560Z,19.42
2022-12-01T17:33:03.412Z,18.50
2022-12-01T17:43:09.303Z,18.75
2022-12-01T17:53:12.018Z,18.35
2022-12-01T18:03:16.144Z,17.10
2022-12-01T18:13:21.222Z,15.65
2022-12-01T18:23:25.806Z,11.82
2022-12-01T18:33:28.506Z,12.20
2022-12-01T18:43:33.599Z,11.05
2022-12-01T18:53:36.678Z,9.82
2022-12-01T19:03:40.707Z,10.30
2022-12-01T19:13:43.799Z,8.75
2022-12-01T19:23:48.756Z,11.77
2022-12-01T19:33:51.798Z,10.07
2022-12-01T19:43:56.290Z,9.77
2022-12-01T19:53:59.428Z,11.73
2022-12-01T20:04:03.969Z,10.93
2022-12-01T20:14:08.079Z,10.82
2022-12-01T20:24:14.432Z,10.70
2022-12-01T20:34:20.481Z,11.45
2022-12-01T20:44:24.552Z,11.38
2022-12-01T20:54:29.231Z,11.35
2022-12-01T21:04:33.692Z,12.27
2022-12-01T21:14:40.091Z,11.73
2022-12-01T21:24:45.079Z,10.63
2022-12-01T21:34:49.279Z,11.05
2022-12-01T21:44:53.806Z,10.68
2022-12-01T21:54:58.411Z,13.13
2022-12-01T22:05:02.638Z,13.43
2022-12-01T22:15:35.210Z,11.57
2022-12-01T22:25:39.683Z,11.73
2022-12-01T22:35:45.025Z,10.43
2022-12-01T22:45:50.931Z,10.32
2022-12-01T22:55:56.814Z,10.60
2022-12-01T23:06:00.802Z,9.20
2022-12-01T23:16:03.543Z,8.70
2022-12-01T23:26:09.980Z,8.05
2022-12-01T23:36:16.255Z,8.70
2022-12-01T23:46:23.565Z,7.82
2022-12-01T23:56:28.957Z,7.85
